sensor_id;sensor_type;location;lat;lon;timestamp;P1;durP1;ratioP1;P2;durP2;ratioP2
4808;SDS011;2418;49.930;8.606;2023-08-06T00:00:14;5.30;;;5.00;;
4808;SDS011;2418;49.930;8.606;2023-08-06T00:02:40;5.67;;;5.30;;
4808;SDS011;2418;49.930;8.606;2023-08-06T00:05:06;5.60;;;5.18;;
4808;SDS011;2418;49.930;8.606;2023-08-06T00:07:32;5.47;;;5.07;;
4808;SDS011;2418;49.930;8.606;2023-08-06T00:09:58;7.85;;;5.25;;
4808;SDS011;2418;49.930;8.606;2023-08-06T00:12:24;5.60;;;5.30;;
4808;SDS011;2418;49.930;8.606;2023-08-06T00:14:50;5.82;;;5.20;;
4808;SDS011;2418;49.930;8.606;2023-08-06T00:17:16;5.00;;;4.68;;
4808;SDS011;2418;49.930;8.606;2023-08-06T00:19:42;5.97;;;5.38;;
4808;SDS011;2418;49.930;8.606;2023-08-06T00:22:08;6.80;;;6.10;;
4808;SDS011;2418;49.930;8.606;2023-08-06T00:24:36;5.90;;;5.40;;
4808;SDS011;2418;49.930;8.606;2023-08-06T00:27:02;6.95;;;5.00;;
4808;SDS011;2418;49.930;8.606;2023-08-06T00:29:28;5.35;;;5.15;;
4808;SDS011;2418;49.930;8.606;2023-08-06T00:31:57;5.60;;;5.30;;
4808;SDS011;2418;49.930;8.606;2023-08-06T00:34:30;5.80;;;5.40;;
4808;SDS011;2418;49.930;8.606;2023-08-06T00:36:56;5.05;;;4.68;;
4808;SDS011;2418;49.930;8.606;2023-08-06T00:39:22;7.10;;;5.50;;
4808;SDS011;2418;49.930;8.606;2023-08-06T00:41:48;5.70;;;5.40;;
4808;SDS011;2418;49.930;8.606;2023-08-06T00:44:14;5.90;;;5.30;;
4808;SDS011;2418;49.930;8.606;2023-08-06T00:46:39;5.20;;;4.80;;
4808;SDS011;2418;49.930;8.606;2023-08-06T00:49:05;8.77;;;5.03;;
4808;SDS011;2418;49.930;8.606;2023-08-06T00:51:31;4.90;;;4.70;;
4808;SDS011;2418;49.930;8.606;2023-08-06T00:53:57;5.25;;;4.78;;
4808;SDS011;2418;49.930;8.606;2023-08-06T00:56:24;4.53;;;4.10;;
4808;SDS011;2418;49.930;8.606;2023-08-06T00:58:50;8.55;;;5.28;;
4808;SDS011;2418;49.930;8.606;2023-08-06T01:01:16;5.00;;;4.60;;
4808;SDS011;2418;49.930;8.606;2023-08-06T01:03:42;3.93;;;3.83;;
4808;SDS011;2418;49.930;8.606;2023-08-06T01:06:08;6.03;;;4.43;;
4808;SDS011;2418;49.930;8.606;2023-08-06T01:14:21;4.63;;;4.03;;
4808;SDS011;2418;49.930;8.606;2023-08-06T01:16:50;5.03;;;4.10;;
4808;SDS011;2418;49.930;8.606;2023-08-06T01:19:17;4.25;;;3.90;;
4808;SDS011;2418;49.930;8.606;2023-08-06T01:21:43;6.20;;;4.40;;
4808;SDS011;2418;49.930;8.606;2023-08-06T01:24:09;4.88;;;4.47;;
4808;SDS011;2418;49.930;8.606;2023-08-06T01:26:42;4.35;;;4.05;;
4808;SDS011;2418;49.930;8.606;2023-08-06T01:29:19;4.10;;;3.90;;
4808;SDS011;2418;49.930;8.606;2023-08-06T01:31:56;4.22;;;3.90;;
4808;SDS011;2418;49.930;8.606;2023-08-06T01:34:24;3.30;;;3.20;;
4808;SDS011;2418;49.930;8.606;2023-08-06T01:36:50;3.55;;;3.45;;
4808;SDS011;2418;49.930;8.606;2023-08-06T01:39:17;3.50;;;3.40;;
4808;SDS011;2418;49.930;8.606;2023-08-06T01:41:46;3.17;;;3.08;;
4808;SDS011;2418;49.930;8.606;2023-08-06T01:44:15;3.90;;;3.28;;
4808;SDS011;2418;49.930;8.606;2023-08-06T01:46:41;3.55;;;3.25;;
4808;SDS011;2418;49.930;8.606;2023-08-06T01:49:07;3.10;;;3.00;;
4808;SDS011;2418;49.930;8.606;2023-08-06T01:51:32;3.00;;;2.90;;
4808;SDS011;2418;49.930;8.606;2023-08-06T01:53:58;7.00;;;3.35;;
4808;SDS011;2418;49.930;8.606;2023-08-06T01:56:24;3.45;;;3.20;;
4808;SDS011;2418;49.930;8.606;2023-08-06T01:58:50;3.00;;;2.80;;
4808;SDS011;2418;49.930;8.606;2023-08-06T02:01:16;3.00;;;2.90;;
4808;SDS011;2418;49.930;8.606;2023-08-06T02:03:42;4.35;;;3.50;;
4808;SDS011;2418;49.930;8.606;2023-08-06T02:06:08;3.00;;;2.80;;
4808;SDS011;2418;49.930;8.606;2023-08-06T02:08:34;6.15;;;2.90;;
4808;SDS011;2418;49.930;8.606;2023-08-06T02:11:00;2.72;;;2.63;;
4808;SDS011;2418;49.930;8.606;2023-08-06T02:13:27;3.30;;;2.22;;
4808;SDS011;2418;49.930;8.606;2023-08-06T02:15:53;2.57;;;2.47;;
4808;SDS011;2418;49.930;8.606;2023-08-06T02:18:19;2.55;;;2.40;;
4808;SDS011;2418;49.930;8.606;2023-08-06T02:20:54;2.90;;;2.60;;
4808;SDS011;2418;49.930;8.606;2023-08-06T02:23:24;3.10;;;2.90;;
4808;SDS011;2418;49.930;8.606;2023-08-06T02:25:57;6.07;;;2.77;;
4808;SDS011;2418;49.930;8.606;2023-08-06T02:28:23;2.63;;;2.42;;
4808;SDS011;2418;49.930;8.606;2023-08-06T02:30:49;2.70;;;2.60;;
4808;SDS011;2418;49.930;8.606;2023-08-06T02:33:15;3.20;;;2.45;;
4808;SDS011;2418;49.930;8.606;2023-08-06T02:35:41;2.80;;;2.60;;
4808;SDS011;2418;49.930;8.606;2023-08-06T02:38:07;3.10;;;2.90;;
4808;SDS011;2418;49.930;8.606;2023-08-06T02:40:33;3.00;;;2.80;;
4808;SDS011;2418;49.930;8.606;2023-08-06T02:42:59;3.00;;;2.60;;
4808;SDS011;2418;49.930;8.606;2023-08-06T02:45:25;4.75;;;2.53;;
4808;SDS011;2418;49.930;8.606;2023-08-06T02:47:50;3.17;;;2.88;;
4808;SDS011;2418;49.930;8.606;2023-08-06T02:50:16;2.83;;;2.70;;
4808;SDS011;2418;49.930;8.606;2023-08-06T02:52:42;2.60;;;2.50;;
4808;SDS011;2418;49.930;8.606;2023-08-06T02:55:08;2.57;;;2.47;;
4808;SDS011;2418;49.930;8.606;2023-08-06T02:57:34;2.60;;;2.50;;
4808;SDS011;2418;49.930;8.606;2023-08-06T03:00:00;5.30;;;2.90;;
4808;SDS011;2418;49.930;8.606;2023-08-06T03:02:26;2.80;;;2.60;;
4808;SDS011;2418;49.930;8.606;2023-08-06T03:04:51;3.60;;;2.35;;
4808;SDS011;2418;49.930;8.606;2023-08-06T03:07:17;2.60;;;2.50;;
4808;SDS011;2418;49.930;8.606;2023-08-06T03:09:43;2.90;;;2.70;;
4808;SDS011;2418;49.930;8.606;2023-08-06T03:12:09;2.23;;;2.23;;
4808;SDS011;2418;49.930;8.606;2023-08-06T03:14:35;2.70;;;1.95;;
4808;SDS011;2418;49.930;8.606;2023-08-06T03:17:01;2.00;;;1.90;;
4808;SDS011;2418;49.930;8.606;2023-08-06T03:19:26;4.50;;;2.20;;
4808;SDS011;2418;49.930;8.606;2023-08-06T03:21:52;2.90;;;2.70;;
4808;SDS011;2418;49.930;8.606;2023-08-06T03:24:18;2.80;;;2.60;;
4808;SDS011;2418;49.930;8.606;2023-08-06T03:26:44;1.70;;;1.70;;
4808;SDS011;2418;49.930;8.606;2023-08-06T03:29:09;7.10;;;2.40;;
4808;SDS011;2418;49.930;8.606;2023-08-06T03:31:35;2.30;;;2.20;;
4808;SDS011;2418;49.930;8.606;2023-08-06T03:34:01;2.53;;;2.42;;
4808;SDS011;2418;49.930;8.606;2023-08-06T03:36:27;5.00;;;2.72;;
4808;SDS011;2418;49.930;8.606;2023-08-06T03:38:53;7.60;;;2.30;;
4808;SDS011;2418;49.930;8.606;2023-08-06T03:41:18;5.80;;;2.50;;
4808;SDS011;2418;49.930;8.606;2023-08-06T03:43:44;2.25;;;2.25;;
4808;SDS011;2418;49.930;8.606;2023-08-06T03:46:10;2.90;;;2.30;;
4808;SDS011;2418;49.930;8.606;2023-08-06T03:48:36;2.38;;;2.28;;
4808;SDS011;2418;49.930;8.606;2023-08-06T03:51:01;3.60;;;3.03;;
4808;SDS011;2418;49.930;8.606;2023-08-06T03:53:27;2.50;;;2.40;;
4808;SDS011;2418;49.930;8.606;2023-08-06T03:55:53;2.80;;;2.60;;
4808;SDS011;2418;49.930;8.606;2023-08-06T03:58:20;3.00;;;2.80;;
4808;SDS011;2418;49.930;8.606;2023-08-06T04:00:46;2.38;;;2.35;;
4808;SDS011;2418;49.930;8.606;2023-08-06T04:03:12;4.20;;;2.40;;
4808;SDS011;2418;49.930;8.606;2023-08-06T04:05:38;5.20;;;2.80;;
4808;SDS011;2418;49.930;8.606;2023-08-06T04:08:04;2.45;;;2.25;;
4808;SDS011;2418;49.930;8.606;2023-08-06T04:10:30;3.70;;;2.50;;
4808;SDS011;2418;49.930;8.606;2023-08-06T04:12:56;2.40;;;2.30;;
4808;SDS011;2418;49.930;8.606;2023-08-06T04:15:22;2.90;;;2.70;;
4808;SDS011;2418;49.930;8.606;2023-08-06T04:17:48;3.72;;;2.58;;
4808;SDS011;2418;49.930;8.606;2023-08-06T04:20:14;2.95;;;2.75;;
4808;SDS011;2418;49.930;8.606;2023-08-06T04:22:39;4.50;;;2.90;;
4808;SDS011;2418;49.930;8.606;2023-08-06T04:25:05;3.03;;;2.72;;
4808;SDS011;2418;49.930;8.606;2023-08-06T04:27:31;3.50;;;3.20;;
4808;SDS011;2418;49.930;8.606;2023-08-06T04:29:57;5.00;;;3.25;;
4808;SDS011;2418;49.930;8.606;2023-08-06T04:32:23;5.40;;;3.63;;
4808;SDS011;2418;49.930;8.606;2023-08-06T04:34:50;3.80;;;3.70;;
4808;SDS011;2418;49.930;8.606;2023-08-06T04:37:16;3.70;;;3.40;;
4808;SDS011;2418;49.930;8.606;2023-08-06T04:39:41;3.73;;;3.50;;
4808;SDS011;2418;49.930;8.606;2023-08-06T04:42:07;4.00;;;3.60;;
4808;SDS011;2418;49.930;8.606;2023-08-06T04:44:33;3.47;;;3.30;;
4808;SDS011;2418;49.930;8.606;2023-08-06T04:46:59;5.37;;;3.70;;
4808;SDS011;2418;49.930;8.606;2023-08-06T04:49:24;4.10;;;3.53;;
4808;SDS011;2418;49.930;8.606;2023-08-06T04:51:50;3.50;;;3.20;;
4808;SDS011;2418;49.930;8.606;2023-08-06T04:54:16;3.23;;;3.13;;
4808;SDS011;2418;49.930;8.606;2023-08-06T04:56:41;4.87;;;3.23;;
4808;SDS011;2418;49.930;8.606;2023-08-06T04:59:07;3.38;;;3.17;;
4808;SDS011;2418;49.930;8.606;2023-08-06T05:01:33;3.80;;;3.60;;
4808;SDS011;2418;49.930;8.606;2023-08-06T05:03:59;5.00;;;3.50;;
4808;SDS011;2418;49.930;8.606;2023-08-06T05:06:25;4.20;;;3.78;;
4808;SDS011;2418;49.930;8.606;2023-08-06T05:08:51;3.80;;;3.58;;
4808;SDS011;2418;49.930;8.606;2023-08-06T05:11:17;4.20;;;3.83;;
4808;SDS011;2418;49.930;8.606;2023-08-06T05:13:43;4.60;;;4.38;;
4808;SDS011;2418;49.930;8.606;2023-08-06T05:16:08;5.00;;;3.83;;
4808;SDS011;2418;49.930;8.606;2023-08-06T05:18:34;7.95;;;4.05;;
4808;SDS011;2418;49.930;8.606;2023-08-06T05:21:02;3.53;;;3.40;;
4808;SDS011;2418;49.930;8.606;2023-08-06T05:23:28;4.22;;;3.88;;
4808;SDS011;2418;49.930;8.606;2023-08-06T05:25:54;3.10;;;2.80;;
4808;SDS011;2418;49.930;8.606;2023-08-06T05:28:20;3.27;;;3.07;;
4808;SDS011;2418;49.930;8.606;2023-08-06T05:30:46;3.22;;;2.42;;
4808;SDS011;2418;49.930;8.606;2023-08-06T05:33:11;6.83;;;2.37;;
4808;SDS011;2418;49.930;8.606;2023-08-06T05:35:37;2.60;;;2.40;;
4808;SDS011;2418;49.930;8.606;2023-08-06T05:38:03;2.63;;;2.42;;
4808;SDS011;2418;49.930;8.606;2023-08-06T05:40:29;4.15;;;2.50;;
4808;SDS011;2418;49.930;8.606;2023-08-06T05:42:55;3.00;;;2.40;;
4808;SDS011;2418;49.930;8.606;2023-08-06T05:45:21;1.80;;;1.40;;
4808;SDS011;2418;49.930;8.606;2023-08-06T05:47:47;1.52;;;1.52;;
4808;SDS011;2418;49.930;8.606;2023-08-06T05:50:14;3.08;;;1.65;;
4808;SDS011;2418;49.930;8.606;2023-08-06T05:52:40;2.72;;;1.20;;
4808;SDS011;2418;49.930;8.606;2023-08-06T05:55:06;1.20;;;1.10;;
4808;SDS011;2418;49.930;8.606;2023-08-06T05:57:32;1.90;;;1.08;;
4808;SDS011;2418;49.930;8.606;2023-08-06T05:59:58;2.95;;;1.30;;
4808;SDS011;2418;49.930;8.606;2023-08-06T06:02:24;1.30;;;1.20;;
4808;SDS011;2418;49.930;8.606;2023-08-06T06:04:50;2.90;;;1.30;;
4808;SDS011;2418;49.930;8.606;2023-08-06T06:07:16;3.35;;;1.42;;
4808;SDS011;2418;49.930;8.606;2023-08-06T06:09:42;2.40;;;2.20;;
4808;SDS011;2418;49.930;8.606;2023-08-06T06:12:08;4.25;;;2.00;;
4808;SDS011;2418;49.930;8.606;2023-08-06T06:14:33;2.08;;;1.98;;
4808;SDS011;2418;49.930;8.606;2023-08-06T06:16:59;7.63;;;2.10;;
4808;SDS011;2418;49.930;8.606;2023-08-06T06:19:25;1.90;;;1.80;;
4808;SDS011;2418;49.930;8.606;2023-08-06T06:21:51;1.80;;;1.70;;
4808;SDS011;2418;49.930;8.606;2023-08-06T06:24:18;1.70;;;1.60;;
4808;SDS011;2418;49.930;8.606;2023-08-06T06:26:44;2.90;;;1.90;;
4808;SDS011;2418;49.930;8.606;2023-08-06T06:29:10;2.10;;;1.90;;
4808;SDS011;2418;49.930;8.606;2023-08-06T06:31:35;2.00;;;1.90;;
4808;SDS011;2418;49.930;8.606;2023-08-06T06:34:01;2.10;;;1.90;;
4808;SDS011;2418;49.930;8.606;2023-08-06T06:36:27;2.30;;;1.98;;
4808;SDS011;2418;49.930;8.606;2023-08-06T06:38:53;2.80;;;1.60;;
4808;SDS011;2418;49.930;8.606;2023-08-06T06:41:19;2.10;;;2.00;;
4808;SDS011;2418;49.930;8.606;2023-08-06T06:43:45;2.00;;;1.90;;
4808;SDS011;2418;49.930;8.606;2023-08-06T06:46:11;2.60;;;1.65;;
4808;SDS011;2418;49.930;8.606;2023-08-06T06:48:37;2.20;;;1.60;;
4808;SDS011;2418;49.930;8.606;2023-08-06T06:51:03;1.10;;;1.10;;
4808;SDS011;2418;49.930;8.606;2023-08-06T06:53:29;4.00;;;1.10;;
4808;SDS011;2418;49.930;8.606;2023-08-06T06:55:56;1.20;;;1.20;;
4808;SDS011;2418;49.930;8.606;2023-08-06T06:58:26;1.00;;;1.00;;
4808;SDS011;2418;49.930;8.606;2023-08-06T07:00:52;1.70;;;1.05;;
4808;SDS011;2418;49.930;8.606;2023-08-06T07:03:19;1.30;;;0.95;;
4808;SDS011;2418;49.930;8.606;2023-08-06T07:05:45;0.80;;;0.80;;
4808;SDS011;2418;49.930;8.606;2023-08-06T07:08:11;3.00;;;0.70;;
4808;SDS011;2418;49.930;8.606;2023-08-06T07:10:37;2.88;;;0.70;;
4808;SDS011;2418;49.930;8.606;2023-08-06T07:13:03;0.75;;;0.70;;
4808;SDS011;2418;49.930;8.606;2023-08-06T07:15:29;4.60;;;1.00;;
4808;SDS011;2418;49.930;8.606;2023-08-06T07:17:55;1.50;;;0.70;;
4808;SDS011;2418;49.930;8.606;2023-08-06T07:20:21;0.70;;;0.60;;
4808;SDS011;2418;49.930;8.606;2023-08-06T07:22:47;0.70;;;0.70;;
4808;SDS011;2418;49.930;8.606;2023-08-06T07:25:14;2.40;;;0.60;;
4808;SDS011;2418;49.930;8.606;2023-08-06T07:27:40;3.13;;;1.30;;
4808;SDS011;2418;49.930;8.606;2023-08-06T07:30:06;2.90;;;0.90;;
4808;SDS011;2418;49.930;8.606;2023-08-06T07:32:32;1.23;;;1.13;;
4808;SDS011;2418;49.930;8.606;2023-08-06T07:34:58;3.13;;;1.00;;
4808;SDS011;2418;49.930;8.606;2023-08-06T07:37:25;2.50;;;1.00;;
4808;SDS011;2418;49.930;8.606;2023-08-06T07:39:53;1.48;;;1.10;;
4808;SDS011;2418;49.930;8.606;2023-08-06T07:42:19;3.35;;;1.15;;
4808;SDS011;2418;49.930;8.606;2023-08-06T07:44:50;1.20;;;1.10;;
4808;SDS011;2418;49.930;8.606;2023-08-06T07:47:19;2.97;;;1.00;;
4808;SDS011;2418;49.930;8.606;2023-08-06T07:49:45;2.53;;;1.33;;
4808;SDS011;2418;49.930;8.606;2023-08-06T07:52:11;2.90;;;1.30;;
4808;SDS011;2418;49.930;8.606;2023-08-06T07:54:37;1.73;;;1.15;;
4808;SDS011;2418;49.930;8.606;2023-08-06T07:57:03;1.33;;;1.08;;
4808;SDS011;2418;49.930;8.606;2023-08-06T07:59:29;1.40;;;1.30;;
4808;SDS011;2418;49.930;8.606;2023-08-06T08:01:55;2.90;;;1.60;;
4808;SDS011;2418;49.930;8.606;2023-08-06T08:04:21;1.60;;;1.05;;
4808;SDS011;2418;49.930;8.606;2023-08-06T08:06:47;2.00;;;1.30;;
4808;SDS011;2418;49.930;8.606;2023-08-06T08:09:13;1.40;;;1.30;;
4808;SDS011;2418;49.930;8.606;2023-08-06T08:11:40;1.80;;;1.50;;
4808;SDS011;2418;49.930;8.606;2023-08-06T08:14:06;2.08;;;1.10;;
4808;SDS011;2418;49.930;8.606;2023-08-06T08:16:32;1.40;;;1.30;;
4808;SDS011;2418;49.930;8.606;2023-08-06T08:18:58;3.08;;;0.90;;
4808;SDS011;2418;49.930;8.606;2023-08-06T08:21:24;1.90;;;1.20;;
4808;SDS011;2418;49.930;8.606;2023-08-06T08:23:50;1.05;;;1.05;;
4808;SDS011;2418;49.930;8.606;2023-08-06T08:26:16;1.63;;;1.30;;
4808;SDS011;2418;49.930;8.606;2023-08-06T08:28:42;1.20;;;1.10;;
4808;SDS011;2418;49.930;8.606;2023-08-06T08:31:08;1.10;;;1.10;;
4808;SDS011;2418;49.930;8.606;2023-08-06T08:33:34;0.95;;;0.95;;
4808;SDS011;2418;49.930;8.606;2023-08-06T08:36:00;2.20;;;0.80;;
4808;SDS011;2418;49.930;8.606;2023-08-06T08:38:26;2.90;;;0.90;;
4808;SDS011;2418;49.930;8.606;2023-08-06T08:40:53;2.60;;;1.40;;
4808;SDS011;2418;49.930;8.606;2023-08-06T08:43:20;1.17;;;1.00;;
4808;SDS011;2418;49.930;8.606;2023-08-06T08:45:49;1.10;;;1.08;;
4808;SDS011;2418;49.930;8.606;2023-08-06T08:48:15;1.40;;;0.80;;
4808;SDS011;2418;49.930;8.606;2023-08-06T08:50:42;1.20;;;0.75;;
4808;SDS011;2418;49.930;8.606;2023-08-06T08:53:10;1.50;;;0.80;;
4808;SDS011;2418;49.930;8.606;2023-08-06T08:55:37;0.80;;;0.80;;
4808;SDS011;2418;49.930;8.606;2023-08-06T08:58:03;0.60;;;0.60;;
4808;SDS011;2418;49.930;8.606;2023-08-06T09:00:29;0.75;;;0.50;;
4808;SDS011;2418;49.930;8.606;2023-08-06T09:02:56;0.50;;;0.50;;
4808;SDS011;2418;49.930;8.606;2023-08-06T09:05:22;1.40;;;1.00;;
4808;SDS011;2418;49.930;8.606;2023-08-06T09:07:49;1.20;;;0.70;;
4808;SDS011;2418;49.930;8.606;2023-08-06T09:10:16;0.97;;;0.50;;
4808;SDS011;2418;49.930;8.606;2023-08-06T09:12:43;0.40;;;0.40;;
4808;SDS011;2418;49.930;8.606;2023-08-06T09:15:10;0.60;;;0.40;;
4808;SDS011;2418;49.930;8.606;2023-08-06T09:17:36;0.40;;;0.40;;
4808;SDS011;2418;49.930;8.606;2023-08-06T09:20:12;3.28;;;0.40;;
4808;SDS011;2418;49.930;8.606;2023-08-06T09:22:38;3.70;;;0.50;;
4808;SDS011;2418;49.930;8.606;2023-08-06T09:25:04;0.50;;;0.50;;
4808;SDS011;2418;49.930;8.606;2023-08-06T09:27:34;0.40;;;0.40;;
4808;SDS011;2418;49.930;8.606;2023-08-06T09:30:00;0.50;;;0.50;;
4808;SDS011;2418;49.930;8.606;2023-08-06T09:32:26;1.40;;;0.40;;
4808;SDS011;2418;49.930;8.606;2023-08-06T09:34:55;0.50;;;0.40;;
4808;SDS011;2418;49.930;8.606;2023-08-06T09:37:22;0.40;;;0.40;;
4808;SDS011;2418;49.930;8.606;2023-08-06T09:39:47;1.33;;;0.50;;
4808;SDS011;2418;49.930;8.606;2023-08-06T09:42:14;0.45;;;0.45;;
4808;SDS011;2418;49.930;8.606;2023-08-06T09:44:41;1.50;;;0.50;;
4808;SDS011;2418;49.930;8.606;2023-08-06T09:47:07;0.30;;;0.30;;
4808;SDS011;2418;49.930;8.606;2023-08-06T09:51:59;0.47;;;0.47;;
4808;SDS011;2418;49.930;8.606;2023-08-06T09:54:25;0.50;;;0.50;;
4808;SDS011;2418;49.930;8.606;2023-08-06T09:56:52;0.80;;;0.60;;
4808;SDS011;2418;49.930;8.606;2023-08-06T09:59:19;0.50;;;0.50;;
4808;SDS011;2418;49.930;8.606;2023-08-06T10:01:45;0.50;;;0.50;;
4808;SDS011;2418;49.930;8.606;2023-08-06T10:04:15;0.63;;;0.63;;
4808;SDS011;2418;49.930;8.606;2023-08-06T10:06:41;0.60;;;0.60;;
4808;SDS011;2418;49.930;8.606;2023-08-06T10:09:08;0.60;;;0.50;;
4808;SDS011;2418;49.930;8.606;2023-08-06T10:11:34;0.63;;;0.60;;
4808;SDS011;2418;49.930;8.606;2023-08-06T10:14:04;0.70;;;0.50;;
4808;SDS011;2418;49.930;8.606;2023-08-06T10:16:41;1.60;;;0.55;;
4808;SDS011;2418;49.930;8.606;2023-08-06T10:19:08;0.53;;;0.53;;
4808;SDS011;2418;49.930;8.606;2023-08-06T10:21:35;0.50;;;0.50;;
4808;SDS011;2418;49.930;8.606;2023-08-06T10:24:01;0.50;;;0.50;;
4808;SDS011;2418;49.930;8.606;2023-08-06T10:26:28;0.60;;;0.60;;
4808;SDS011;2418;49.930;8.606;2023-08-06T10:28:54;0.50;;;0.50;;
4808;SDS011;2418;49.930;8.606;2023-08-06T10:31:46;1.60;;;0.60;;
4808;SDS011;2418;49.930;8.606;2023-08-06T10:34:06;0.50;;;0.50;;
4808;SDS011;2418;49.930;8.606;2023-08-06T10:36:33;0.60;;;0.50;;
4808;SDS011;2418;49.930;8.606;2023-08-06T10:38:59;2.20;;;0.50;;
4808;SDS011;2418;49.930;8.606;2023-08-06T10:41:29;0.40;;;0.40;;
4808;SDS011;2418;49.930;8.606;2023-08-06T10:44:09;0.50;;;0.50;;
4808;SDS011;2418;49.930;8.606;2023-08-06T10:46:35;1.10;;;0.40;;
4808;SDS011;2418;49.930;8.606;2023-08-06T10:49:02;0.90;;;0.50;;
4808;SDS011;2418;49.930;8.606;2023-08-06T10:51:28;0.80;;;0.40;;
4808;SDS011;2418;49.930;8.606;2023-08-06T10:53:54;0.40;;;0.40;;
4808;SDS011;2418;49.930;8.606;2023-08-06T10:56:21;0.40;;;0.40;;
4808;SDS011;2418;49.930;8.606;2023-08-06T10:58:48;0.40;;;0.40;;
4808;SDS011;2418;49.930;8.606;2023-08-06T11:01:14;0.30;;;0.30;;
4808;SDS011;2418;49.930;8.606;2023-08-06T11:03:41;0.30;;;0.30;;
4808;SDS011;2418;49.930;8.606;2023-08-06T11:06:08;0.30;;;0.30;;
4808;SDS011;2418;49.930;8.606;2023-08-06T11:08:35;0.50;;;0.50;;
4808;SDS011;2418;49.930;8.606;2023-08-06T11:11:10;0.40;;;0.40;;
4808;SDS011;2418;49.930;8.606;2023-08-06T11:13:37;0.40;;;0.40;;
4808;SDS011;2418;49.930;8.606;2023-08-06T11:16:04;1.38;;;0.40;;
4808;SDS011;2418;49.930;8.606;2023-08-06T11:18:30;0.68;;;0.40;;
4808;SDS011;2418;49.930;8.606;2023-08-06T11:20:58;0.40;;;0.40;;
4808;SDS011;2418;49.930;8.606;2023-08-06T11:23:25;0.32;;;0.32;;
4808;SDS011;2418;49.930;8.606;2023-08-06T11:25:51;0.30;;;0.30;;
4808;SDS011;2418;49.930;8.606;2023-08-06T11:28:19;0.40;;;0.40;;
4808;SDS011;2418;49.930;8.606;2023-08-06T11:30:48;0.30;;;0.30;;
4808;SDS011;2418;49.930;8.606;2023-08-06T11:33:17;0.30;;;0.30;;
4808;SDS011;2418;49.930;8.606;2023-08-06T11:35:45;0.30;;;0.30;;
4808;SDS011;2418;49.930;8.606;2023-08-06T11:38:13;0.52;;;0.40;;
4808;SDS011;2418;49.930;8.606;2023-08-06T11:40:38;0.30;;;0.30;;
4808;SDS011;2418;49.930;8.606;2023-08-06T11:43:07;0.30;;;0.30;;
4808;SDS011;2418;49.930;8.606;2023-08-06T11:45:35;0.30;;;0.30;;
4808;SDS011;2418;49.930;8.606;2023-08-06T11:48:01;0.30;;;0.30;;
4808;SDS011;2418;49.930;8.606;2023-08-06T11:50:28;0.35;;;0.35;;
4808;SDS011;2418;49.930;8.606;2023-08-06T11:52:59;0.30;;;0.30;;
4808;SDS011;2418;49.930;8.606;2023-08-06T11:55:25;0.30;;;0.30;;
4808;SDS011;2418;49.930;8.606;2023-08-06T11:57:51;0.30;;;0.30;;
4808;SDS011;2418;49.930;8.606;2023-08-06T12:00:18;0.32;;;0.32;;
4808;SDS011;2418;49.930;8.606;2023-08-06T12:02:47;0.50;;;0.50;;
4808;SDS011;2418;49.930;8.606;2023-08-06T12:05:17;0.40;;;0.40;;
4808;SDS011;2418;49.930;8.606;2023-08-06T12:07:46;0.40;;;0.40;;
4808;SDS011;2418;49.930;8.606;2023-08-06T12:10:13;1.00;;;0.40;;
4808;SDS011;2418;49.930;8.606;2023-08-06T12:12:39;0.40;;;0.40;;
4808;SDS011;2418;49.930;8.606;2023-08-06T12:15:05;0.50;;;0.40;;
4808;SDS011;2418;49.930;8.606;2023-08-06T12:17:34;0.50;;;0.50;;
4808;SDS011;2418;49.930;8.606;2023-08-06T12:20:00;0.70;;;0.70;;
4808;SDS011;2418;49.930;8.606;2023-08-06T12:22:29;0.60;;;0.50;;
4808;SDS011;2418;49.930;8.606;2023-08-06T12:25:03;0.40;;;0.40;;
4808;SDS011;2418;49.930;8.606;2023-08-06T12:27:32;1.45;;;0.80;;
4808;SDS011;2418;49.930;8.606;2023-08-06T12:30:05;0.50;;;0.50;;
4808;SDS011;2418;49.930;8.606;2023-08-06T12:32:32;0.50;;;0.50;;
4808;SDS011;2418;49.930;8.606;2023-08-06T12:34:58;0.50;;;0.50;;
4808;SDS011;2418;49.930;8.606;2023-08-06T12:37:24;0.40;;;0.40;;
4808;SDS011;2418;49.930;8.606;2023-08-06T12:39:50;0.40;;;0.40;;
4808;SDS011;2418;49.930;8.606;2023-08-06T12:42:16;0.50;;;0.50;;
4808;SDS011;2418;49.930;8.606;2023-08-06T12:44:42;0.70;;;0.70;;
4808;SDS011;2418;49.930;8.606;2023-08-06T12:47:08;1.40;;;0.65;;
4808;SDS011;2418;49.930;8.606;2023-08-06T12:49:34;0.50;;;0.50;;
4808;SDS011;2418;49.930;8.606;2023-08-06T12:52:00;0.50;;;0.50;;
4808;SDS011;2418;49.930;8.606;2023-08-06T12:54:27;0.40;;;0.40;;
4808;SDS011;2418;49.930;8.606;2023-08-06T12:56:53;0.60;;;0.50;;
4808;SDS011;2418;49.930;8.606;2023-08-06T12:59:19;0.52;;;0.52;;
4808;SDS011;2418;49.930;8.606;2023-08-06T13:01:45;0.60;;;0.60;;
4808;SDS011;2418;49.930;8.606;2023-08-06T13:04:13;0.50;;;0.50;;
4808;SDS011;2418;49.930;8.606;2023-08-06T13:06:39;0.50;;;0.50;;
4808;SDS011;2418;49.930;8.606;2023-08-06T13:09:06;0.50;;;0.50;;
4808;SDS011;2418;49.930;8.606;2023-08-06T13:11:33;1.70;;;0.55;;
4808;SDS011;2418;49.930;8.606;2023-08-06T13:14:03;0.50;;;0.50;;
4808;SDS011;2418;49.930;8.606;2023-08-06T13:16:30;0.70;;;0.60;;
4808;SDS011;2418;49.930;8.606;2023-08-06T13:18:56;3.90;;;0.50;;
4808;SDS011;2418;49.930;8.606;2023-08-06T13:21:22;0.63;;;0.63;;
4808;SDS011;2418;49.930;8.606;2023-08-06T13:23:48;0.50;;;0.50;;
4808;SDS011;2418;49.930;8.606;2023-08-06T13:26:14;0.50;;;0.50;;
4808;SDS011;2418;49.930;8.606;2023-08-06T13:28:41;0.60;;;0.60;;
4808;SDS011;2418;49.930;8.606;2023-08-06T13:31:07;1.60;;;0.60;;
4808;SDS011;2418;49.930;8.606;2023-08-06T13:33:33;0.50;;;0.50;;
4808;SDS011;2418;49.930;8.606;2023-08-06T13:35:58;0.80;;;0.80;;
4808;SDS011;2418;49.930;8.606;2023-08-06T13:38:26;1.00;;;1.00;;
4808;SDS011;2418;49.930;8.606;2023-08-06T13:40:52;0.90;;;0.90;;
4808;SDS011;2418;49.930;8.606;2023-08-06T13:43:17;0.70;;;0.70;;
4808;SDS011;2418;49.930;8.606;2023-08-06T13:45:46;0.88;;;0.88;;
4808;SDS011;2418;49.930;8.606;2023-08-06T13:48:12;0.93;;;0.70;;
4808;SDS011;2418;49.930;8.606;2023-08-06T13:50:38;1.70;;;0.80;;
4808;SDS011;2418;49.930;8.606;2023-08-06T13:53:04;1.60;;;0.63;;
4808;SDS011;2418;49.930;8.606;2023-08-06T13:55:30;1.80;;;0.70;;
4808;SDS011;2418;49.930;8.606;2023-08-06T13:58:05;2.67;;;0.88;;
4808;SDS011;2418;49.930;8.606;2023-08-06T14:00:32;0.80;;;0.80;;
4808;SDS011;2418;49.930;8.606;2023-08-06T14:03:02;0.70;;;0.50;;
4808;SDS011;2418;49.930;8.606;2023-08-06T14:05:29;0.50;;;0.50;;
4808;SDS011;2418;49.930;8.606;2023-08-06T14:07:55;0.57;;;0.57;;
4808;SDS011;2418;49.930;8.606;2023-08-06T14:10:20;1.00;;;0.50;;
4808;SDS011;2418;49.930;8.606;2023-08-06T14:12:46;1.90;;;0.50;;
4808;SDS011;2418;49.930;8.606;2023-08-06T14:15:15;0.70;;;0.50;;
4808;SDS011;2418;49.930;8.606;2023-08-06T14:17:41;1.90;;;0.80;;
4808;SDS011;2418;49.930;8.606;2023-08-06T14:20:07;0.60;;;0.60;;
4808;SDS011;2418;49.930;8.606;2023-08-06T14:22:36;0.70;;;0.60;;
4808;SDS011;2418;49.930;8.606;2023-08-06T14:25:02;1.60;;;0.70;;
4808;SDS011;2418;49.930;8.606;2023-08-06T14:27:28;0.52;;;0.52;;
4808;SDS011;2418;49.930;8.606;2023-08-06T14:29:55;0.50;;;0.50;;
4808;SDS011;2418;49.930;8.606;2023-08-06T14:32:21;3.40;;;0.80;;
4808;SDS011;2418;49.930;8.606;2023-08-06T14:34:47;1.13;;;1.13;;
4808;SDS011;2418;49.930;8.606;2023-08-06T14:37:13;1.30;;;1.20;;
4808;SDS011;2418;49.930;8.606;2023-08-06T14:39:39;0.80;;;0.80;;
4808;SDS011;2418;49.930;8.606;2023-08-06T14:42:05;1.50;;;0.50;;
4808;SDS011;2418;49.930;8.606;2023-08-06T14:44:31;0.50;;;0.50;;
4808;SDS011;2418;49.930;8.606;2023-08-06T14:46:57;0.77;;;0.50;;
4808;SDS011;2418;49.930;8.606;2023-08-06T14:49:23;0.40;;;0.40;;
4808;SDS011;2418;49.930;8.606;2023-08-06T14:51:50;0.50;;;0.50;;
4808;SDS011;2418;49.930;8.606;2023-08-06T14:54:16;0.90;;;0.60;;
4808;SDS011;2418;49.930;8.606;2023-08-06T14:56:43;1.00;;;0.50;;
4808;SDS011;2418;49.930;8.606;2023-08-06T14:59:08;1.10;;;0.50;;
4808;SDS011;2418;49.930;8.606;2023-08-06T15:01:40;0.40;;;0.40;;
4808;SDS011;2418;49.930;8.606;2023-08-06T15:04:06;0.60;;;0.50;;
4808;SDS011;2418;49.930;8.606;2023-08-06T15:06:31;0.33;;;0.33;;
4808;SDS011;2418;49.930;8.606;2023-08-06T15:08:57;0.40;;;0.40;;
4808;SDS011;2418;49.930;8.606;2023-08-06T15:11:25;0.57;;;0.50;;
4808;SDS011;2418;49.930;8.606;2023-08-06T15:13:51;0.60;;;0.60;;
4808;SDS011;2418;49.930;8.606;2023-08-06T15:16:17;1.10;;;0.85;;
4808;SDS011;2418;49.930;8.606;2023-08-06T15:18:43;0.50;;;0.50;;